Time;durP1;ratioP1;P1;durP2;ratioP2;P2;SDS_P1;SDS_P2;PMS_P1;PMS_P2;Temp;Humidity;BMP_temperature;BMP_pressure;BME280_temperature;BME280_humidity;BME280_pressure;Samples;Min_cycle;Max_cycle;Signal;HPM_P1;HPM_P2
2023/03/02 00:02:12;;;;;;;8.80;7.93;;;1.90;70.60;;;;;;5008475;28;20465;-70
2023/03/02 00:04:43;;;;;;;8.15;7.45;;;1.90;71.40;;;;;;5009945;28;20456;-70
2023/03/02 00:07:16;;;;;;;9.15;8.10;;;1.80;71.90;;;;;;5007913;28;21368;-71
2023/03/02 00:09:44;;;;;;;8.95;8.15;;;1.70;72.00;;;;;;5007024;28;20436;-70
2023/03/02 00:12:13;;;;;;;9.55;8.07;;;1.70;72.60;;;;;;5008527;28;20467;-69
2023/03/02 00:14:40;;;;;;;8.70;7.80;;;1.70;73.00;;;;;;5007841;28;20440;-69
2023/03/02 00:17:07;;;;;;;8.90;8.00;;;1.60;73.00;;;;;;5008458;28;20424;-71
2023/03/02 00:19:35;;;;;;;9.55;8.65;;;1.60;73.50;;;;;;5007422;28;20451;-69
2023/03/02 00:22:02;;;;;;;9.30;8.40;;;1.60;74.60;;;;;;5008437;28;20439;-70
2023/03/02 00:24:28;;;;;;;9.38;8.43;;;1.50;73.90;;;;;;5006944;28;20903;-70
2023/03/02 00:26:55;;;;;;;10.80;8.70;;;1.50;74.80;;;;;;5006276;28;20427;-69
2023/03/02 00:29:24;;;;;;;8.60;7.70;;;1.50;75.40;;;;;;5009313;28;20436;-71
2023/03/02 00:31:50;;;;;;;9.13;8.20;;;1.40;76.10;;;;;;5009103;28;20420;-69
2023/03/02 00:34:17;;;;;;;10.38;8.88;;;1.40;76.50;;;;;;5007116;28;20444;-68
2023/03/02 00:36:44;;;;;;;9.13;8.23;;;1.40;77.40;;;;;;5006817;28;20460;-71
2023/03/02 00:39:10;;;;;;;9.03;8.10;;;1.30;77.60;;;;;;5008450;28;20448;-71
2023/03/02 00:41:37;;;;;;;9.73;8.27;;;1.20;78.20;;;;;;5008795;28;20428;-70
2023/03/02 00:44:04;;;;;;;9.57;8.63;;;1.10;78.80;;;;;;5008600;28;20424;-70
2023/03/02 00:46:32;;;;;;;9.82;8.80;;;1.10;79.80;;;;;;5009559;28;20412;-69
2023/03/02 00:48:59;;;;;;;9.27;8.32;;;1.00;79.70;;;;;;5009898;28;20907;-70
2023/03/02 00:51:26;;;;;;;10.77;9.10;;;1.00;80.70;;;;;;5009962;28;20420;-68
2023/03/02 00:53:52;;;;;;;10.80;9.00;;;1.00;80.70;;;;;;5008730;28;20443;-70
2023/03/02 00:56:19;;;;;;;8.80;8.00;;;1.10;80.40;;;;;;4999967;28;20426;-70
2023/03/02 00:58:46;;;;;;;9.55;8.57;;;1.10;80.80;;;;;;5010160;28;20772;-71
2023/03/02 01:01:13;;;;;;;8.98;7.95;;;1.00;81.00;;;;;;4989434;28;20437;-69
2023/03/02 01:03:41;;;;;;;9.27;8.40;;;0.90;81.00;;;;;;4988247;28;20426;-69
2023/03/02 01:06:17;;;;;;;9.93;8.40;;;0.80;81.50;;;;;;5003002;28;20448;-71
2023/03/02 01:08:44;;;;;;;10.00;9.00;;;0.80;82.20;;;;;;5008247;28;20942;-70
2023/03/02 01:11:15;;;;;;;10.10;9.00;;;0.80;83.10;;;;;;5005817;28;20432;-71
2023/03/02 01:13:42;;;;;;;10.25;8.95;;;0.80;83.20;;;;;;5005620;28;20445;-70
2023/03/02 01:16:10;;;;;;;10.27;8.60;;;0.70;81.60;;;;;;5009074;28;20876;-71
2023/03/02 01:18:37;;;;;;;9.40;8.25;;;0.70;82.40;;;;;;5006921;28;20868;-70
2023/03/02 01:21:08;;;;;;;9.68;8.68;;;0.60;83.20;;;;;;5008191;28;20440;-71
2023/03/02 01:23:35;;;;;;;9.73;8.82;;;0.60;82.80;;;;;;5007572;28;20431;-70
2023/03/02 01:26:02;;;;;;;8.00;7.20;;;0.70;82.60;;;;;;5006714;28;20946;-69
2023/03/02 01:28:29;;;;;;;8.50;7.60;;;0.60;81.50;;;;;;5008157;28;20424;-69
2023/03/02 01:30:56;;;;;;;9.07;7.90;;;0.60;82.40;;;;;;5008196;28;20428;-71
2023/03/02 01:33:23;;;;;;;8.70;7.90;;;0.60;82.00;;;;;;5006355;28;20443;-70
2023/03/02 01:35:49;;;;;;;8.63;7.72;;;0.60;80.80;;;;;;5007004;28;20915;-70
2023/03/02 01:38:18;;;;;;;9.48;8.57;;;0.60;80.80;;;;;;5007574;28;20417;-71
2023/03/02 01:40:44;;;;;;;9.40;8.50;;;0.50;81.30;;;;;;5007395;28;20440;-71
2023/03/02 01:43:13;;;;;;;9.23;8.32;;;0.50;81.10;;;;;;5006370;28;20437;-69
2023/03/02 01:45:52;;;;;;;8.87;7.97;;;0.40;81.10;;;;;;5008051;28;20458;-70
2023/03/02 01:48:25;;;;;;;8.47;7.67;;;0.40;82.40;;;;;;5006647;28;20421;-70
2023/03/02 01:50:53;;;;;;;7.88;7.18;;;0.40;83.20;;;;;;5007419;28;20432;-70
2023/03/02 01:53:24;;;;;;;8.73;7.83;;;0.50;82.30;;;;;;5006050;28;20464;-71
2023/03/02 01:55:51;;;;;;;9.05;8.15;;;0.60;82.00;;;;;;5001825;28;20798;-70
2023/03/02 01:58:19;;;;;;;9.27;8.38;;;0.50;81.40;;;;;;4998653;28;20912;-70
2023/03/02 02:00:46;;;;;;;9.48;8.57;;;0.50;81.10;;;;;;5008143;28;20465;-70
2023/03/02 02:03:19;;;;;;;8.80;7.90;;;0.50;80.60;;;;;;5006483;28;20990;-71
2023/03/02 02:05:54;;;;;;;10.15;8.57;;;0.40;81.00;;;;;;5008195;28;20431;-68
2023/03/02 02:08:23;;;;;;;8.27;7.47;;;0.40;81.30;;;;;;5008175;28;20420;-71
2023/03/02 02:10:50;;;;;;;8.60;7.70;;;0.30;81.70;;;;;;4999973;28;20445;-70
2023/03/02 02:13:17;;;;;;;9.68;8.77;;;0.40;83.80;;;;;;5008209;28;20413;-70
2023/03/02 02:15:44;;;;;;;8.70;7.90;;;0.40;83.80;;;;;;5008108;28;20412;-69
2023/03/02 02:18:11;;;;;;;9.70;8.70;;;0.40;82.80;;;;;;5007856;28;20413;-68
2023/03/02 02:20:41;;;;;;;8.93;8.02;;;0.40;83.30;;;;;;5007004;28;20423;-71
2023/03/02 02:23:24;;;;;;;9.48;8.57;;;0.30;83.00;;;;;;5006056;28;20467;-70
2023/03/02 02:26:17;;;;;;;9.63;8.63;;;0.30;84.40;;;;;;5009336;28;20447;-70
2023/03/02 02:28:48;;;;;;;9.48;8.48;;;0.30;83.60;;;;;;5010616;28;20420;-70
2023/03/02 02:31:19;;;;;;;9.60;8.60;;;0.30;84.80;;;;;;5003146;28;20815;-71
2023/03/02 02:33:51;;;;;;;8.77;7.88;;;0.20;83.50;;;;;;5009765;28;20428;-68
2023/03/02 02:36:21;;;;;;;8.75;7.85;;;0.10;84.20;;;;;;5008069;28;20432;-70
2023/03/02 02:38:51;;;;;;;8.73;7.93;;;0.10;85.30;;;;;;5010145;28;20425;-70
2023/03/02 02:41:23;;;;;;;8.73;7.90;;;0.10;86.00;;;;;;5008244;28;20443;-71
2023/03/02 02:43:50;;;;;;;8.20;7.50;;;0.10;86.00;;;;;;5010035;28;20424;-71
2023/03/02 02:46:17;;;;;;;9.20;8.30;;;0.10;86.10;;;;;;5010729;28;20417;-70
2023/03/02 02:48:44;;;;;;;8.10;7.30;;;0.10;87.10;;;;;;5010435;28;20492;-71
2023/03/02 02:51:20;;;;;;;8.63;7.82;;;0.10;86.90;;;;;;5009339;28;20523;-68
2023/03/02 02:53:57;;;;;;;8.90;8.00;;;0.00;86.50;;;;;;5005910;28;20413;-71
2023/03/02 02:56:27;;;;;;;9.57;8.48;;;0.10;87.20;;;;;;5015078;28;20436;-70
2023/03/02 02:58:55;;;;;;;9.07;8.18;;;0.00;86.70;;;;;;5010468;28;20428;-69
2023/03/02 03:01:24;;;;;;;8.15;7.35;;;0.00;86.50;;;;;;5010864;28;20464;-71
2023/03/02 03:03:53;;;;;;;9.05;8.00;;;0.00;86.70;;;;;;5009785;28;20868;-71
2023/03/02 03:06:25;;;;;;;8.25;7.50;;;0.00;86.80;;;;;;5023273;22;20441;-72
2023/03/02 03:08:59;;;;;;;8.38;7.40;;;0.10;87.40;;;;;;4985796;28;20446;-73
2023/03/02 03:11:28;;;;;;;8.40;7.50;;;0.10;87.40;;;;;;4990000;28;20866;-72
2023/03/02 03:14:04;;;;;;;8.60;7.70;;;0.10;86.80;;;;;;4990621;28;20410;-72
2023/03/02 03:16:32;;;;;;;8.65;7.75;;;0.10;87.20;;;;;;4983910;28;20793;-71
2023/03/02 03:19:05;;;;;;;7.80;7.05;;;0.00;86.00;;;;;;4991204;28;20414;-72
2023/03/02 03:21:32;;;;;;;8.75;7.85;;;0.10;86.40;;;;;;4989983;28;20904;-72
2023/03/02 03:23:59;;;;;;;8.10;7.30;;;0.00;86.00;;;;;;4990721;28;20711;-72
2023/03/02 03:26:27;;;;;;;8.50;7.60;;;0.00;86.00;;;;;;4989031;28;20890;-71
2023/03/02 03:28:56;;;;;;;8.82;7.57;;;0.00;85.00;;;;;;4990916;28;20801;-74
2023/03/02 03:31:23;;;;;;;8.13;7.32;;;0.00;84.60;;;;;;4991078;28;20426;-73
2023/03/02 03:33:50;;;;;;;8.75;7.95;;;0.00;84.90;;;;;;4988480;28;20438;-75
2023/03/02 03:36:17;;;;;;;9.13;8.27;;;0.00;86.50;;;;;;4989420;28;20498;-73
2023/03/02 03:38:44;;;;;;;8.25;7.35;;;0.00;87.00;;;;;;4988976;28;20488;-73
2023/03/02 03:41:11;;;;;;;9.65;8.68;;;0.00;86.70;;;;;;4989215;28;20888;-72
2023/03/02 03:43:39;;;;;;;9.45;8.50;;;-0.10;87.70;;;;;;4989981;28;21086;-71
2023/03/02 03:46:06;;;;;;;9.38;8.48;;;-0.10;88.80;;;;;;4990696;28;20801;-71
2023/03/02 03:48:33;;;;;;;10.10;9.10;;;-0.20;88.90;;;;;;4991681;28;20494;-71
2023/03/02 03:51:00;;;;;;;9.68;8.70;;;-0.10;90.20;;;;;;4989562;28;20442;-71
2023/03/02 03:53:27;;;;;;;10.00;9.00;;;-0.20;89.60;;;;;;4990088;28;20411;-72
2023/03/02 03:55:55;;;;;;;9.80;8.77;;;-0.30;90.30;;;;;;4987512;28;20434;-71
2023/03/02 03:58:22;;;;;;;10.05;9.00;;;-0.30;90.90;;;;;;4991155;28;20805;-74
2023/03/02 04:00:50;;;;;;;9.30;8.30;;;-0.20;91.30;;;;;;4991281;28;20422;-71
2023/03/02 04:03:18;;;;;;;9.60;8.65;;;-0.30;90.50;;;;;;4990119;28;20661;-72
2023/03/02 04:05:45;;;;;;;9.30;8.40;;;-0.30;90.60;;;;;;4990622;28;20430;-71
2023/03/02 04:08:12;;;;;;;9.55;8.65;;;-0.40;90.70;;;;;;4990057;28;20418;-71
2023/03/02 04:10:39;;;;;;;9.73;8.73;;;-0.30;90.90;;;;;;4988893;28;20437;-73
2023/03/02 04:13:06;;;;;;;9.30;8.27;;;-0.20;91.20;;;;;;4989966;28;20417;-72
2023/03/02 04:15:33;;;;;;;9.53;8.57;;;-0.10;90.60;;;;;;4988880;28;20899;-73
2023/03/02 04:18:01;;;;;;;8.75;7.95;;;-0.10;90.30;;;;;;4972856;28;20428;-70
2023/03/02 04:20:29;;;;;;;9.88;8.65;;;-0.20;90.40;;;;;;4972938;28;20435;-70
2023/03/02 04:22:58;;;;;;;10.20;8.80;;;-0.20;91.00;;;;;;4989163;28;20437;-71
2023/03/02 04:25:28;;;;;;;9.27;8.27;;;-0.20;91.10;;;;;;4988992;28;20450;-71
2023/03/02 04:27:55;;;;;;;10.25;8.77;;;-0.10;91.00;;;;;;4991080;28;20422;-71
2023/03/02 04:30:24;;;;;;;9.60;8.60;;;-0.20;90.90;;;;;;4990849;28;20440;-72
2023/03/02 04:32:51;;;;;;;10.30;9.20;;;-0.30;91.00;;;;;;4988937;28;20898;-72
2023/03/02 04:35:19;;;;;;;9.68;8.77;;;-0.30;91.40;;;;;;4990497;28;20426;-73
2023/03/02 04:37:46;;;;;;;9.20;8.30;;;-0.30;91.80;;;;;;4989649;28;20419;-72
2023/03/02 04:40:14;;;;;;;9.80;8.80;;;-0.40;91.70;;;;;;4989223;28;20469;-73
2023/03/02 04:42:43;;;;;;;9.43;8.43;;;-0.40;91.70;;;;;;4988543;28;20439;-73
2023/03/02 04:45:11;;;;;;;8.95;8.05;;;-0.40;91.40;;;;;;4990515;28;20458;-73
2023/03/02 04:47:37;;;;;;;9.73;8.73;;;-0.40;91.30;;;;;;4989113;28;20425;-73
2023/03/02 04:50:05;;;;;;;9.80;8.80;;;-0.40;91.00;;;;;;4989625;28;20430;-73
2023/03/02 04:52:33;;;;;;;8.57;7.68;;;-0.50;91.30;;;;;;4984034;28;20807;-71
2023/03/02 04:55:00;;;;;;;9.68;8.23;;;-0.50;90.90;;;;;;4990140;28;20437;-71
2023/03/02 04:57:27;;;;;;;9.05;8.10;;;-0.50;91.20;;;;;;4989219;28;20426;-71
2023/03/02 04:59:53;;;;;;;9.80;8.80;;;-0.60;91.30;;;;;;4989800;28;20426;-71
2023/03/02 05:02:20;;;;;;;8.85;7.95;;;-0.60;91.80;;;;;;4987528;28;20430;-72
2023/03/02 05:04:47;;;;;;;10.73;9.00;;;-0.60;92.20;;;;;;4989630;28;20430;-72
2023/03/02 05:07:14;;;;;;;10.38;8.68;;;-0.60;92.40;;;;;;4984051;28;20454;-72
2023/03/02 05:09:42;;;;;;;9.10;8.20;;;-0.50;92.80;;;;;;4981199;28;20953;-72
2023/03/02 05:12:08;;;;;;;9.15;8.25;;;-0.50;93.00;;;;;;4986108;28;20453;-71
2023/03/02 05:14:35;;;;;;;9.90;9.00;;;-0.50;93.10;;;;;;4975537;28;20912;-72
2023/03/02 05:17:02;;;;;;;9.70;8.70;;;-0.50;93.20;;;;;;4983734;28;20435;-72
2023/03/02 05:19:29;;;;;;;10.43;9.43;;;-0.60;93.40;;;;;;4989060;28;20430;-73
2023/03/02 05:21:56;;;;;;;10.07;9.07;;;-0.50;93.80;;;;;;4987710;28;20422;-72
2023/03/02 05:24:23;;;;;;;10.27;9.27;;;-0.50;93.60;;;;;;4986086;28;20469;-73
2023/03/02 05:26:51;;;;;;;9.35;7.80;;;-0.50;93.10;;;;;;4987735;28;20885;-72
2023/03/02 05:29:17;;;;;;;9.27;8.27;;;-0.50;92.60;;;;;;4971079;28;20428;-74
2023/03/02 05:31:45;;;;;;;10.43;9.43;;;-0.60;92.70;;;;;;4969513;28;20427;-74
2023/03/02 05:34:15;;;;;;;9.98;8.52;;;-0.50;92.90;;;;;;4980897;28;20450;-72
2023/03/02 05:36:42;;;;;;;10.25;8.40;;;-0.50;92.90;;;;;;4990360;28;20478;-72
2023/03/02 05:39:09;;;;;;;10.20;9.20;;;-0.50;93.00;;;;;;4983513;28;20445;-73
2023/03/02 05:41:37;;;;;;;13.00;11.60;;;-0.40;92.70;;;;;;4986815;28;20418;-74
2023/03/02 05:44:08;;;;;;;11.20;10.00;;;-0.50;92.90;;;;;;4981535;28;20432;-73
2023/03/02 05:46:35;;;;;;;9.43;8.52;;;-0.40;93.10;;;;;;4982723;28;20992;-72
2023/03/02 05:49:02;;;;;;;9.60;8.60;;;-0.30;92.90;;;;;;4989326;28;20429;-72
2023/03/02 05:51:29;;;;;;;9.60;8.60;;;-0.30;92.90;;;;;;4984479;28;20443;-72
2023/03/02 05:53:56;;;;;;;9.20;8.30;;;-0.50;92.40;;;;;;4987191;28;20445;-74
2023/03/02 05:56:22;;;;;;;9.35;8.38;;;-0.50;92.60;;;;;;4987646;28;20430;-72
2023/03/02 05:58:49;;;;;;;9.75;8.63;;;-0.50;92.50;;;;;;4986354;28;20495;-75
2023/03/02 06:01:17;;;;;;;9.73;8.30;;;-0.50;92.80;;;;;;4990950;28;20821;-74
2023/03/02 06:03:44;;;;;;;10.60;8.80;;;-0.60;93.20;;;;;;4987651;28;20805;-75
2023/03/02 06:06:12;;;;;;;10.13;9.15;;;-0.60;93.30;;;;;;4988177;28;20430;-72
2023/03/02 06:08:39;;;;;;;10.38;9.07;;;-0.60;93.20;;;;;;4987242;28;20434;-73
2023/03/02 06:11:07;;;;;;;9.52;8.63;;;-0.60;93.20;;;;;;4989981;28;20704;-73
2023/03/02 06:13:33;;;;;;;9.50;8.60;;;-0.70;92.70;;;;;;4991691;28;20429;-74
2023/03/02 06:16:00;;;;;;;9.63;8.63;;;-0.70;92.90;;;;;;4982235;28;20434;-74
2023/03/02 06:18:28;;;;;;;9.02;8.13;;;-0.70;93.20;;;;;;4979839;28;20501;-73
2023/03/02 06:20:55;;;;;;;9.25;8.23;;;-0.60;93.00;;;;;;4989075;28;20501;-73
2023/03/02 06:23:22;;;;;;;10.65;9.00;;;-0.50;92.70;;;;;;4990433;28;20457;-74
2023/03/02 06:25:49;;;;;;;8.27;7.47;;;-0.30;91.70;;;;;;4984207;28;20438;-73
2023/03/02 06:28:18;;;;;;;8.93;7.70;;;-0.30;90.90;;;;;;4991845;28;20428;-72
2023/03/02 06:30:47;;;;;;;8.00;7.30;;;-0.30;90.60;;;;;;4986299;28;20419;-74
2023/03/02 06:33:15;;;;;;;7.75;7.05;;;-0.30;90.20;;;;;;4980547;28;20424;-72
2023/03/02 06:35:43;;;;;;;8.63;7.72;;;-0.30;90.00;;;;;;4973119;28;20432;-72
2023/03/02 06:38:10;;;;;;;8.38;7.57;;;-0.30;89.60;;;;;;4972230;28;20439;-74
2023/03/02 06:40:36;;;;;;;9.02;7.28;;;-0.20;89.30;;;;;;4987271;28;20426;-73
2023/03/02 06:43:03;;;;;;;8.70;7.90;;;-0.10;89.60;;;;;;4986904;28;20451;-74
2023/03/02 06:45:32;;;;;;;8.20;7.38;;;-0.10;89.40;;;;;;4979186;28;20441;-74
2023/03/02 06:47:59;;;;;;;10.73;8.00;;;-0.10;89.50;;;;;;4991300;28;20873;-74
2023/03/02 06:50:27;;;;;;;8.60;7.80;;;0.00;90.00;;;;;;4987895;28;20453;-74
2023/03/02 06:52:55;;;;;;;9.50;8.50;;;0.10;89.90;;;;;;4983154;28;20498;-75
2023/03/02 06:55:22;;;;;;;9.80;8.90;;;0.10;90.00;;;;;;4984058;28;20444;-72
2023/03/02 06:57:49;;;;;;;8.50;7.60;;;0.20;89.70;;;;;;4984905;28;20434;-71
2023/03/02 07:00:17;;;;;;;8.80;7.90;;;0.20;89.60;;;;;;4990972;28;20937;-72
2023/03/02 07:02:44;;;;;;;10.95;9.80;;;0.20;89.80;;;;;;4989286;28;20909;-71
2023/03/02 07:05:11;;;;;;;9.05;8.15;;;0.30;89.40;;;;;;4977602;28;20426;-73
2023/03/02 07:07:38;;;;;;;9.87;8.87;;;0.40;87.80;;;;;;4973874;28;20552;-73
2023/03/02 07:10:09;;;;;;;9.40;8.50;;;0.50;87.10;;;;;;4977209;28;20429;-71
2023/03/02 07:12:36;;;;;;;10.40;8.70;;;0.50;87.30;;;;;;4987804;28;20437;-71
2023/03/02 07:15:04;;;;;;;9.70;8.20;;;0.60;86.90;;;;;;4972422;28;20428;-71
2023/03/02 07:17:30;;;;;;;8.88;8.05;;;0.70;85.20;;;;;;4976708;28;20426;-69
2023/03/02 07:19:57;;;;;;;10.50;8.80;;;0.80;84.40;;;;;;4986582;28;20431;-70
2023/03/02 07:22:24;;;;;;;9.68;8.68;;;1.00;84.60;;;;;;4969606;28;20527;-70
2023/03/02 07:24:51;;;;;;;8.60;7.80;;;1.00;84.00;;;;;;4990305;28;20441;-71
2023/03/02 07:27:19;;;;;;;10.48;9.27;;;1.10;82.20;;;;;;4979253;28;20800;-70
2023/03/02 07:29:45;;;;;;;11.27;9.75;;;1.20;81.60;;;;;;4979969;28;20418;-71
2023/03/02 07:32:12;;;;;;;10.30;8.87;;;1.30;81.40;;;;;;4969871;28;20428;-71
2023/03/02 07:34:39;;;;;;;11.38;8.85;;;1.40;80.50;;;;;;4983871;28;20419;-71
2023/03/02 07:37:06;;;;;;;11.80;8.30;;;1.50;79.20;;;;;;4981353;28;20433;-71
2023/03/02 07:39:32;;;;;;;14.27;8.85;;;1.60;78.00;;;;;;4973454;28;20522;-70
2023/03/02 07:42:00;;;;;;;12.82;9.30;;;1.60;78.00;;;;;;4980752;28;20435;-71
2023/03/02 07:44:28;;;;;;;10.88;8.60;;;1.80;77.70;;;;;;4985010;28;20434;-71
2023/03/02 07:46:55;;;;;;;10.13;8.95;;;1.90;76.10;;;;;;4989486;28;20765;-72
2023/03/02 07:49:22;;;;;;;9.45;8.07;;;2.10;74.30;;;;;;4982322;28;20429;-71
2023/03/02 07:51:49;;;;;;;10.70;9.27;;;2.30;73.00;;;;;;4978470;28;20424;-71
2023/03/02 07:54:15;;;;;;;9.00;8.00;;;2.50;71.80;;;;;;4969872;28;20514;-71
2023/03/02 07:56:42;;;;;;;9.70;8.80;;;2.60;70.40;;;;;;4982972;28;20458;-71
2023/03/02 07:59:09;;;;;;;8.75;7.95;;;2.80;69.30;;;;;;4989681;28;20754;-72
2023/03/02 08:01:37;;;;;;;9.07;8.18;;;3.00;68.40;;;;;;4988426;28;20472;-71
2023/03/02 08:04:04;;;;;;;9.15;8.05;;;3.20;67.40;;;;;;4986304;28;20433;-71
2023/03/02 08:06:31;;;;;;;8.35;7.55;;;3.40;66.30;;;;;;4983107;28;20433;-71
2023/03/02 08:08:59;;;;;;;9.02;8.23;;;3.60;65.00;;;;;;4989698;28;20434;-71
2023/03/02 08:11:25;;;;;;;9.10;8.20;;;3.80;64.90;;;;;;4990192;28;20455;-70
2023/03/02 08:13:52;;;;;;;9.07;8.23;;;4.00;63.70;;;;;;4988843;28;20445;-70
2023/03/02 08:16:20;;;;;;;9.73;8.60;;;4.10;62.10;;;;;;4989217;28;20514;-71
2023/03/02 08:18:48;;;;;;;9.27;8.48;;;4.30;61.80;;;;;;4976654;28;20477;-72
2023/03/02 08:21:18;;;;;;;9.00;8.10;;;4.40;61.40;;;;;;4985792;28;20419;-71
2023/03/02 08:23:45;;;;;;;9.88;8.88;;;4.50;60.60;;;;;;4986032;28;20875;-71
2023/03/02 08:26:12;;;;;;;10.00;9.00;;;4.70;59.80;;;;;;4998230;28;20429;-71
2023/03/02 08:28:39;;;;;;;10.88;9.07;;;4.80;59.40;;;;;;4988537;28;20431;-72
2023/03/02 08:31:07;;;;;;;9.45;8.55;;;5.00;58.70;;;;;;4989760;28;20430;-70
2023/03/02 08:33:34;;;;;;;10.55;9.13;;;5.20;58.70;;;;;;4987419;28;20415;-71
2023/03/02 08:36:04;;;;;;;9.88;8.98;;;5.30;57.60;;;;;;4983908;28;20477;-72
2023/03/02 08:38:32;;;;;;;10.00;9.10;;;5.50;57.00;;;;;;4975356;28;20458;-72
2023/03/02 08:41:02;;;;;;;10.00;9.10;;;5.60;56.10;;;;;;4969999;28;20787;-71
2023/03/02 08:43:29;;;;;;;10.65;9.65;;;5.70;55.10;;;;;;4967839;28;20438;-72
2023/03/02 08:45:57;;;;;;;10.30;9.20;;;5.90;54.80;;;;;;4981741;28;20945;-71
2023/03/02 08:48:25;;;;;;;9.98;8.98;;;6.10;54.50;;;;;;4970523;28;20462;-70
2023/03/02 08:50:55;;;;;;;10.60;9.50;;;6.20;53.30;;;;;;4982841;28;20422;-72
2023/03/02 08:53:23;;;;;;;10.57;9.50;;;6.40;53.00;;;;;;4984030;28;20454;-71
2023/03/02 08:55:50;;;;;;;10.55;9.15;;;6.50;52.50;;;;;;4982459;28;20434;-72
2023/03/02 08:58:17;;;;;;;11.07;10.07;;;6.70;52.00;;;;;;4971250;28;20534;-70
2023/03/02 09:00:43;;;;;;;11.73;10.73;;;6.80;51.70;;;;;;4984231;28;20418;-72
2023/03/02 09:03:10;;;;;;;10.68;9.60;;;7.00;50.80;;;;;;4981352;28;20424;-71
2023/03/02 09:05:37;;;;;;;10.10;9.10;;;7.20;50.00;;;;;;4971360;28;20799;-71
2023/03/02 09:08:04;;;;;;;10.25;9.15;;;7.30;49.40;;;;;;5006156;22;20450;-75
2023/03/02 09:10:32;;;;;;;12.30;9.50;;;7.50;48.80;;;;;;5005212;28;20424;-73
2023/03/02 09:12:59;;;;;;;9.77;8.77;;;7.60;48.30;;;;;;5005772;28;20934;-75
2023/03/02 09:15:26;;;;;;;9.68;8.77;;;7.80;48.00;;;;;;5003994;28;20439;-74
2023/03/02 09:17:53;;;;;;;8.90;8.10;;;8.00;47.70;;;;;;5006004;28;20759;-73
2023/03/02 09:20:21;;;;;;;10.27;8.40;;;8.20;46.70;;;;;;5003714;28;20416;-74
2023/03/02 09:22:49;;;;;;;9.68;8.75;;;8.30;45.00;;;;;;4994178;28;20431;-74
2023/03/02 09:25:17;;;;;;;9.65;8.75;;;8.30;44.00;;;;;;5013112;28;20430;-74
2023/03/02 09:27:45;;;;;;;10.00;8.88;;;8.40;44.90;;;;;;4994935;28;20493;-74
2023/03/02 09:30:15;;;;;;;9.98;8.98;;;8.60;44.60;;;;;;5000662;28;20443;-77
2023/03/02 09:32:42;;;;;;;9.98;9.07;;;8.70;44.80;;;;;;4994172;28;20815;-75
2023/03/02 09:35:09;;;;;;;9.57;8.68;;;8.90;44.30;;;;;;4985876;28;20418;-73
2023/03/02 09:37:37;;;;;;;10.38;9.27;;;9.00;44.00;;;;;;4998080;28;20428;-75
2023/03/02 09:40:12;;;;;;;10.03;9.07;;;9.00;43.20;;;;;;4997367;28;20443;-77
2023/03/02 09:43:01;;;;;;;9.68;8.73;;;9.10;43.90;;;;;;5004415;28;20895;-75
2023/03/02 09:45:47;;;;;;;10.13;9.13;;;9.30;43.00;;;;;;4986719;28;20864;-74
2023/03/02 09:48:20;;;;;;;384.10;347.10;;;9.40;42.30;;;;;;5002172;28;20441;-77
2023/03/02 09:50:55;;;;;;;29.05;26.30;;;9.60;42.90;;;;;;4998223;28;20420;-75
2023/03/02 09:53:39;;;;;;;12.33;11.13;;;9.90;41.20;;;;;;4984561;28;20426;-75
2023/03/02 09:56:15;;;;;;;10.70;9.60;;;10.00;41.20;;;;;;5002991;28;20423;-76
2023/03/02 09:58:51;;;;;;;12.45;11.07;;;10.20;41.10;;;;;;5013485;28;20424;-76
2023/03/02 10:01:32;;;;;;;12.55;11.35;;;10.50;40.80;;;;;;5015030;28;20416;-75
2023/03/02 10:04:08;;;;;;;10.98;9.98;;;10.80;39.80;;;;;;5001741;28;20439;-76
2023/03/02 10:06:35;;;;;;;9.18;8.27;;;10.80;39.20;;;;;;4991934;28;20446;-76
2023/03/02 10:09:02;;;;;;;9.70;8.80;;;10.80;39.50;;;;;;4987819;28;20447;-74
2023/03/02 10:11:37;;;;;;;9.98;9.00;;;10.90;39.20;;;;;;5004638;28;20424;-76
2023/03/02 10:14:12;;;;;;;9.80;9.00;;;11.00;38.60;;;;;;4989635;28;20430;-76
2023/03/02 10:16:45;;;;;;;10.10;9.10;;;11.20;38.30;;;;;;4987410;28;20423;-76
2023/03/02 10:19:20;;;;;;;11.00;9.20;;;11.20;38.10;;;;;;4995183;28;20508;-77
2023/03/02 10:21:51;;;;;;;9.15;8.25;;;11.40;38.90;;;;;;5002598;28;20486;-76
2023/03/02 10:24:29;;;;;;;10.00;9.00;;;11.50;37.90;;;;;;5014635;28;20767;-74
2023/03/02 10:26:59;;;;;;;9.50;8.60;;;11.70;37.40;;;;;;4996207;28;20422;-76
2023/03/02 10:29:42;;;;;;;10.07;9.07;;;11.90;37.40;;;;;;5005472;28;20421;-73
2023/03/02 10:32:18;;;;;;;9.25;8.35;;;12.10;36.80;;;;;;4990718;28;20428;-76
2023/03/02 10:34:46;;;;;;;9.60;8.60;;;12.30;36.50;;;;;;5007129;28;20413;-76
2023/03/02 10:37:16;;;;;;;8.95;8.15;;;12.20;36.10;;;;;;5001311;28;20424;-75
2023/03/02 10:39:43;;;;;;;9.30;8.40;;;12.40;35.20;;;;;;4996637;28;20427;-76
2023/03/02 10:42:16;;;;;;;10.25;9.25;;;12.50;36.10;;;;;;5004005;28;20908;-76
2023/03/02 10:44:47;;;;;;;10.10;9.10;;;12.60;36.10;;;;;;5004111;28;20470;-75
2023/03/02 10:47:22;;;;;;;9.27;8.48;;;12.90;35.60;;;;;;5000688;28;20440;-75
2023/03/02 10:49:50;;;;;;;9.40;8.50;;;13.20;35.00;;;;;;5004475;28;20445;-76
2023/03/02 10:52:19;;;;;;;9.27;8.38;;;13.50;34.60;;;;;;4989991;28;20422;-76
2023/03/02 10:54:47;;;;;;;10.30;9.37;;;13.60;34.50;;;;;;4998326;28;20428;-75
2023/03/02 10:57:29;;;;;;;9.30;8.40;;;13.70;33.70;;;;;;4995278;28;20434;-76
2023/03/02 11:00:02;;;;;;;9.38;8.48;;;13.60;34.30;;;;;;4989859;28;20430;-76
2023/03/02 11:02:31;;;;;;;9.98;8.82;;;13.60;33.40;;;;;;5004598;28;20781;-76
2023/03/02 11:05:19;;;;;;;9.10;8.30;;;13.50;33.90;;;;;;5016777;28;20423;-75
2023/03/02 11:07:52;;;;;;;9.70;8.80;;;13.70;33.70;;;;;;5009731;28;20421;-76
2023/03/02 11:10:20;;;;;;;10.05;9.05;;;13.90;33.60;;;;;;5015121;28;20447;-75
2023/03/02 11:12:50;;;;;;;9.77;8.77;;;14.00;33.80;;;;;;5015474;28;20471;-75
2023/03/02 11:15:23;;;;;;;11.75;9.23;;;14.40;33.00;;;;;;5014404;28;20494;-75
2023/03/02 11:17:55;;;;;;;10.23;9.13;;;14.50;32.70;;;;;;5003255;28;20444;-75
2023/03/02 11:20:25;;;;;;;9.50;8.60;;;14.80;33.10;;;;;;5011499;28;20417;-75
2023/03/02 11:23:02;;;;;;;9.88;8.70;;;14.90;32.50;;;;;;4998460;28;20429;-75
2023/03/02 11:25:35;;;;;;;9.57;8.68;;;15.10;31.40;;;;;;5018857;28;20432;-75
2023/03/02 11:28:17;;;;;;;10.03;8.80;;;15.10;32.10;;;;;;5000002;28;20418;-75
2023/03/02 11:30:49;;;;;;;9.60;8.80;;;15.30;32.90;;;;;;4989422;28;20525;-75
2023/03/02 11:33:24;;;;;;;9.35;8.45;;;15.60;31.90;;;;;;4990172;28;20428;-75
2023/03/02 11:35:54;;;;;;;9.90;9.00;;;15.90;31.30;;;;;;5008731;28;20412;-76
2023/03/02 11:38:25;;;;;;;9.63;8.82;;;16.20;31.10;;;;;;4995685;28;20432;-75
2023/03/02 11:40:57;;;;;;;10.17;8.67;;;16.40;30.40;;;;;;4996335;28;20962;-76
2023/03/02 11:43:24;;;;;;;9.50;8.68;;;16.70;30.30;;;;;;5007621;28;20519;-75
2023/03/02 11:45:58;;;;;;;9.50;8.60;;;17.00;29.80;;;;;;4998602;28;20449;-76
2023/03/02 11:48:29;;;;;;;9.73;8.73;;;17.10;29.60;;;;;;5009980;28;20436;-76
2023/03/02 11:50:59;;;;;;;9.48;8.57;;;17.30;29.60;;;;;;4997480;28;20422;-76
2023/03/02 11:53:31;;;;;;;9.60;8.70;;;17.60;29.60;;;;;;5001980;28;20428;-76
2023/03/02 11:55:58;;;;;;;9.00;8.20;;;17.90;28.30;;;;;;5002475;28;20911;-76
2023/03/02 11:58:28;;;;;;;8.95;8.15;;;18.10;28.80;;;;;;4999584;28;20423;-76
2023/03/02 12:00:57;;;;;;;8.85;8.05;;;18.20;28.40;;;;;;4994721;28;20453;-74
2023/03/02 12:03:38;;;;;;;8.95;8.15;;;18.50;28.50;;;;;;4995568;28;20439;-75
2023/03/02 12:06:07;;;;;;;8.80;8.00;;;19.00;28.00;;;;;;5004368;28;20449;-75
2023/03/02 12:08:39;;;;;;;8.90;8.20;;;19.30;26.90;;;;;;5002082;28;20892;-76
2023/03/02 12:11:08;;;;;;;9.00;8.20;;;19.30;27.40;;;;;;4996916;28;20475;-75
2023/03/02 12:13:37;;;;;;;8.88;8.07;;;19.40;27.10;;;;;;4999918;28;21080;-76
2023/03/02 12:16:19;;;;;;;10.10;9.10;;;19.70;27.10;;;;;;4988124;28;20419;-76
2023/03/02 12:18:48;;;;;;;9.15;8.35;;;20.20;27.10;;;;;;4991057;28;20815;-75
2023/03/02 12:21:17;;;;;;;8.73;8.02;;;20.70;26.60;;;;;;4997883;28;20642;-75
2023/03/02 12:23:59;;;;;;;8.52;7.82;;;21.00;25.50;;;;;;5011984;28;20443;-76
2023/03/02 12:26:30;;;;;;;8.27;7.53;;;21.20;26.10;;;;;;5001635;28;20497;-76
2023/03/02 12:29:01;;;;;;;8.80;8.10;;;21.50;25.90;;;;;;4987887;28;20762;-75
2023/03/02 12:31:41;;;;;;;8.65;7.95;;;22.30;25.50;;;;;;5000004;28;20444;-75
2023/03/02 12:34:32;;;;;;;8.30;7.60;;;22.50;24.40;;;;;;4986821;28;20430;-75
2023/03/02 12:37:03;;;;;;;7.90;7.30;;;22.80;24.60;;;;;;5000627;28;20416;-75
2023/03/02 12:39:44;;;;;;;8.10;7.40;;;23.80;24.50;;;;;;4993320;28;20422;-75
2023/03/02 12:42:40;;;;;;;8.00;7.30;;;24.60;24.00;;;;;;4993828;28;20480;-75
2023/03/02 12:45:23;;;;;;;7.80;7.20;;;24.80;23.40;;;;;;4976137;28;20943;-75
2023/03/02 12:47:58;;;;;;;8.00;7.32;;;25.30;23.00;;;;;;4986997;28;20422;-75
2023/03/02 12:50:29;;;;;;;7.82;7.13;;;25.70;22.20;;;;;;4987260;28;20745;-75
2023/03/02 12:53:00;;;;;;;8.10;7.40;;;26.00;21.90;;;;;;4995890;28;20457;-74
2023/03/02 12:55:27;;;;;;;7.53;6.88;;;25.70;21.60;;;;;;5006402;28;20790;-75
2023/03/02 12:57:56;;;;;;;7.40;6.80;;;26.00;21.80;;;;;;5003959;28;21165;-74
2023/03/02 13:00:25;;;;;;;8.25;7.55;;;26.40;21.00;;;;;;5002990;28;20440;-73